Terminal Aerodrome Forecast
Issued by NWS

Home | Current Version | Previous Version | Text Only | Print | Product List | Glossary On
Versions: 1 2 3 4 5 6 7 8 9 10 11 12 13 14
000
FTUS44 KOUN 030520
TAFHBR
TAF
KHBR 030520Z 0306/0406 06010KT P6SM -DZ SCT003 OVC035
     FM030900 05010KT 6SM -RADZ SCT003 OVC015
     FM031600 07010KT 4SM -RADZ OVC009=

USA.gov is the U.S. government's official web portal to all federal, state and local government web resources and services.